createdAt,value
2023-06-27T00:00:41.282Z,16.79
2023-06-27T00:01:41.328Z,16.81
2023-06-27T00:02:41.288Z,16.84
2023-06-27T00:03:41.344Z,16.83
2023-06-27T00:04:41.229Z,16.75
2023-06-27T00:05:41.491Z,16.75
2023-06-27T00:06:41.235Z,16.72
2023-06-27T00:07:41.195Z,16.68
2023-06-27T00:08:41.204Z,16.69
2023-06-27T00:09:41.206Z,16.65
2023-06-27T00:10:41.167Z,16.71
2023-06-27T00:11:41.165Z,16.65
2023-06-27T00:12:41.142Z,16.64
2023-06-27T00:13:41.156Z,16.66
2023-06-27T00:14:41.139Z,16.61
2023-06-27T00:15:41.312Z,16.64
2023-06-27T00:16:41.104Z,16.69
2023-06-27T00:17:41.120Z,16.61
2023-06-27T00:18:41.076Z,16.58
2023-06-27T00:19:41.081Z,16.54
2023-06-27T00:20:41.053Z,16.57
2023-06-27T00:21:41.051Z,16.53
2023-06-27T00:22:41.046Z,16.51
2023-06-27T00:23:41.022Z,16.49
2023-06-27T00:24:41.019Z,16.50
2023-06-27T00:25:41.164Z,16.49
2023-06-27T00:26:41.023Z,16.49
2023-06-27T00:27:40.982Z,16.39
2023-06-27T00:28:40.975Z,16.49
2023-06-27T00:29:40.967Z,16.53
2023-06-27T00:30:40.953Z,16.53
2023-06-27T00:31:40.973Z,16.47
2023-06-27T00:32:40.980Z,16.42
2023-06-27T00:33:40.904Z,16.41
2023-06-27T00:34:40.891Z,16.46
2023-06-27T00:35:41.239Z,16.43
2023-06-27T00:36:40.906Z,16.42
2023-06-27T00:37:40.894Z,16.50
2023-06-27T00:38:40.885Z,16.46
2023-06-27T00:39:40.849Z,16.43
2023-06-27T00:40:40.851Z,16.49
2023-06-27T00:41:40.847Z,16.41
2023-06-27T00:42:40.803Z,16.50
2023-06-27T00:43:40.792Z,16.39
2023-06-27T00:44:40.805Z,16.51
2023-06-27T00:45:41.155Z,16.38
2023-06-27T00:46:40.769Z,16.47
2023-06-27T00:47:40.762Z,16.41
2023-06-27T00:48:40.758Z,16.42
2023-06-27T00:49:40.731Z,16.42
2023-06-27T00:50:40.718Z,16.47
2023-06-27T00:51:40.708Z,16.43
2023-06-27T00:52:40.718Z,16.43
2023-06-27T00:53:40.681Z,16.33
2023-06-27T00:54:40.694Z,16.33
2023-06-27T00:55:41.016Z,16.24
2023-06-27T00:56:40.674Z,16.36
2023-06-27T00:57:40.634Z,16.39
2023-06-27T00:58:40.687Z,16.36
2023-06-27T00:59:40.613Z,16.33
2023-06-27T01:00:40.618Z,16.29
2023-06-27T01:01:40.641Z,16.50
2023-06-27T01:02:40.637Z,16.39
2023-06-27T01:03:40.667Z,16.42
2023-06-27T01:04:40.556Z,16.46
2023-06-27T01:05:40.811Z,16.47
2023-06-27T01:06:40.539Z,16.47
2023-06-27T01:07:40.556Z,16.47
2023-06-27T01:08:40.514Z,16.42
2023-06-27T01:09:40.504Z,16.50
2023-06-27T01:10:40.496Z,16.43
2023-06-27T01:11:40.529Z,16.38
2023-06-27T01:12:40.470Z,16.36
2023-06-27T01:13:40.487Z,16.24
2023-06-27T01:14:40.458Z,16.42
2023-06-27T01:15:40.620Z,16.31
2023-06-27T01:16:40.428Z,16.32
2023-06-27T01:17:40.488Z,16.32
2023-06-27T01:18:40.439Z,16.31
2023-06-27T01:19:40.409Z,16.36
2023-06-27T01:20:40.396Z,16.23
2023-06-27T01:21:40.383Z,16.17
2023-06-27T01:22:40.360Z,16.24
2023-06-27T01:23:40.360Z,16.28
2023-06-27T01:24:40.375Z,16.15
2023-06-27T01:25:40.605Z,16.12
2023-06-27T01:26:40.342Z,16.16
2023-06-27T01:27:40.314Z,16.15
2023-06-27T01:28:40.291Z,16.10
2023-06-27T01:29:40.284Z,16.09
2023-06-27T01:30:40.309Z,16.10
2023-06-27T01:31:40.286Z,16.08
2023-06-27T01:32:40.293Z,16.02
2023-06-27T01:33:40.263Z,16.01
2023-06-27T01:34:40.247Z,16.01
2023-06-27T01:35:40.387Z,16.02
2023-06-27T01:36:40.255Z,16.00
2023-06-27T01:37:40.221Z,16.00
2023-06-27T01:38:40.206Z,15.91
2023-06-27T01:39:40.191Z,16.04
2023-06-27T01:40:40.170Z,15.92
2023-06-27T01:41:40.187Z,15.95
2023-06-27T01:42:40.159Z,15.98
2023-06-27T01:43:40.152Z,16.02
2023-06-27T01:44:40.123Z,15.86
2023-06-27T01:45:40.374Z,15.90
2023-06-27T01:46:40.128Z,15.91
2023-06-27T01:47:40.177Z,15.88
2023-06-27T01:48:40.077Z,15.91
2023-06-27T01:49:40.096Z,15.90
2023-06-27T01:50:40.069Z,16.00
2023-06-27T01:51:40.048Z,15.86
2023-06-27T01:52:40.076Z,15.86
2023-06-27T01:53:40.034Z,15.83
2023-06-27T01:54:40.014Z,15.91
2023-06-27T01:55:40.273Z,15.91
2023-06-27T01:56:40.044Z,15.94
2023-06-27T01:57:40.011Z,15.94
2023-06-27T01:58:39.968Z,15.86
2023-06-27T01:59:39.966Z,15.82
2023-06-27T02:00:39.952Z,15.75
2023-06-27T02:01:39.985Z,15.72
2023-06-27T02:02:40.086Z,15.67
2023-06-27T02:03:39.946Z,15.73
2023-06-27T02:04:39.901Z,15.70
2023-06-27T02:05:40.237Z,15.76
2023-06-27T02:06:39.892Z,15.72
2023-06-27T02:07:39.890Z,15.70
2023-06-27T02:08:39.870Z,15.72
2023-06-27T02:09:39.859Z,15.72
2023-06-27T02:10:39.877Z,15.65
2023-06-27T02:11:39.849Z,15.75
2023-06-27T02:12:39.823Z,15.72
2023-06-27T02:13:39.817Z,15.62
2023-06-27T02:14:39.800Z,15.68
2023-06-27T02:15:40.026Z,15.64
2023-06-27T02:16:39.770Z,15.62
2023-06-27T02:17:39.813Z,15.67
2023-06-27T02:18:39.771Z,15.67
2023-06-27T02:19:39.755Z,15.67
2023-06-27T02:20:39.720Z,15.59
2023-06-27T02:21:39.750Z,15.67
2023-06-27T02:22:39.720Z,15.57
2023-06-27T02:23:39.692Z,15.57
2023-06-27T02:24:39.720Z,15.57
2023-06-27T02:25:39.906Z,15.55
2023-06-27T02:26:39.661Z,15.55
2023-06-27T02:27:39.666Z,15.57
2023-06-27T02:28:39.686Z,15.55
2023-06-27T02:29:39.644Z,15.57
2023-06-27T02:30:39.640Z,15.54
2023-06-27T02:31:39.630Z,15.54
2023-06-27T02:32:39.664Z,15.57
2023-06-27T02:33:39.576Z,15.67
2023-06-27T02:34:39.603Z,15.67
2023-06-27T02:35:39.816Z,15.62
2023-06-27T02:36:39.562Z,15.64
2023-06-27T02:37:39.551Z,15.58
2023-06-27T02:38:39.519Z,15.68
2023-06-27T02:39:39.518Z,15.59
2023-06-27T02:40:39.537Z,15.57
2023-06-27T02:41:39.505Z,15.67
2023-06-27T02:42:39.501Z,15.61
2023-06-27T02:43:39.466Z,15.61
2023-06-27T02:44:39.453Z,15.62
2023-06-27T02:45:39.661Z,15.64
2023-06-27T02:46:39.481Z,15.61
2023-06-27T02:47:39.456Z,15.68
2023-06-27T02:48:39.410Z,15.68
2023-06-27T02:49:39.423Z,15.67
2023-06-27T02:50:39.396Z,15.61
2023-06-27T02:51:39.391Z,15.61
2023-06-27T02:52:39.392Z,15.62
2023-06-27T02:53:39.369Z,15.52
2023-06-27T02:54:39.347Z,15.57
2023-06-27T02:55:39.639Z,15.57
2023-06-27T02:56:39.353Z,15.54
2023-06-27T02:57:39.313Z,15.57
2023-06-27T02:58:39.309Z,15.61
2023-06-27T02:59:39.286Z,15.55
2023-06-27T03:00:39.272Z,15.55
2023-06-27T03:01:39.347Z,15.57
2023-06-27T03:02:39.333Z,15.59
2023-06-27T03:03:39.333Z,15.52
2023-06-27T03:04:39.311Z,15.59
2023-06-27T03:05:39.453Z,15.54
2023-06-27T03:06:39.251Z,15.57
2023-06-27T03:07:39.197Z,15.59
2023-06-27T03:08:39.270Z,15.51
2023-06-27T03:09:39.197Z,15.61
2023-06-27T03:10:39.192Z,15.61
2023-06-27T03:11:39.170Z,15.59
2023-06-27T03:12:39.177Z,15.52
2023-06-27T03:13:39.141Z,15.54
2023-06-27T03:14:39.122Z,15.51
2023-06-27T03:15:39.446Z,15.57
2023-06-27T03:16:39.133Z,15.61
2023-06-27T03:17:41.251Z,15.59
2023-06-27T03:18:39.118Z,15.58
2023-06-27T03:19:44.667Z,15.55
2023-06-27T03:20:40.101Z,15.54
2023-06-27T03:21:39.046Z,15.58
2023-06-27T03:22:39.063Z,15.54
2023-06-27T03:23:39.032Z,15.59
2023-06-27T03:24:39.020Z,15.55
2023-06-27T03:25:39.382Z,15.59
2023-06-27T03:26:39.033Z,15.51
2023-06-27T03:27:39.007Z,15.59
2023-06-27T03:28:38.976Z,15.55
2023-06-27T03:29:38.981Z,15.54
2023-06-27T03:30:38.958Z,15.59
2023-06-27T03:31:38.966Z,15.59
2023-06-27T03:32:39.011Z,15.67
2023-06-27T03:33:38.934Z,15.72
2023-06-27T03:34:38.925Z,15.73
2023-06-27T03:35:39.129Z,15.72
2023-06-27T03:36:38.906Z,15.75
2023-06-27T03:37:38.883Z,15.80
2023-06-27T03:38:38.863Z,15.84
2023-06-27T03:39:38.863Z,15.82
2023-06-27T03:40:38.854Z,15.83
2023-06-27T03:41:38.865Z,15.80
2023-06-27T03:42:38.815Z,15.90
2023-06-27T03:43:38.832Z,15.94
2023-06-27T03:44:38.793Z,15.94
2023-06-27T03:45:39.022Z,15.84
2023-06-27T03:46:38.768Z,15.86
2023-06-27T03:47:38.794Z,15.94
2023-06-27T03:48:38.773Z,15.92
2023-06-27T03:49:38.753Z,15.91
2023-06-27T03:50:38.771Z,16.01
2023-06-27T03:51:38.717Z,15.98
2023-06-27T03:52:38.704Z,16.02
2023-06-27T03:53:38.691Z,16.09
2023-06-27T03:54:38.695Z,16.02
2023-06-27T03:55:39.249Z,16.09
2023-06-27T03:56:38.673Z,16.05
2023-06-27T03:57:38.671Z,16.02
2023-06-27T03:58:38.640Z,15.98
2023-06-27T03:59:38.634Z,16.02
2023-06-27T04:00:38.658Z,16.02
2023-06-27T04:01:38.635Z,16.01
2023-06-27T04:02:38.632Z,16.02
2023-06-27T04:03:38.819Z,15.95
2023-06-27T04:04:38.717Z,16.05
2023-06-27T04:05:39.052Z,15.95
2023-06-27T04:06:38.571Z,15.98
2023-06-27T04:07:38.563Z,16.04
2023-06-27T04:08:38.545Z,16.12
2023-06-27T04:09:38.567Z,16.08
2023-06-27T04:10:38.508Z,16.15
2023-06-27T04:11:38.547Z,16.13
2023-06-27T04:12:38.501Z,16.16
2023-06-27T04:13:38.514Z,16.20
2023-06-27T04:14:38.487Z,16.23
2023-06-27T04:15:38.839Z,16.26
2023-06-27T04:16:38.468Z,16.31
2023-06-27T04:17:38.505Z,16.31
2023-06-27T04:18:38.425Z,16.36
2023-06-27T04:19:38.417Z,16.32
2023-06-27T04:20:38.404Z,16.35
2023-06-27T04:21:38.420Z,16.32
2023-06-27T04:22:38.393Z,16.36
2023-06-27T04:23:38.369Z,16.31
2023-06-27T04:24:38.359Z,16.33
2023-06-27T04:25:38.734Z,16.33
2023-06-27T04:26:38.330Z,16.36
2023-06-27T04:27:38.356Z,16.49
2023-06-27T04:28:38.314Z,16.41
2023-06-27T04:29:38.362Z,16.41
2023-06-27T04:30:38.293Z,16.47
2023-06-27T04:31:38.342Z,16.46
2023-06-27T04:32:38.346Z,16.43
2023-06-27T04:33:38.275Z,16.41
2023-06-27T04:34:38.269Z,16.46
2023-06-27T04:35:38.289Z,16.43
2023-06-27T04:36:38.248Z,16.50
2023-06-27T04:37:38.238Z,16.56
2023-06-27T04:38:38.201Z,16.38
2023-06-27T04:39:38.237Z,16.51
2023-06-27T04:40:38.179Z,16.58
2023-06-27T04:41:38.175Z,16.58
2023-06-27T04:42:38.170Z,16.66
2023-06-27T04:43:38.224Z,16.64
2023-06-27T04:44:38.135Z,16.64
2023-06-27T04:45:38.440Z,16.61
2023-06-27T04:46:38.112Z,16.71
2023-06-27T04:47:38.157Z,16.58
2023-06-27T04:48:38.092Z,16.64
2023-06-27T04:49:38.101Z,16.66
2023-06-27T04:50:38.074Z,16.68
2023-06-27T04:51:38.055Z,16.66
2023-06-27T04:52:38.046Z,16.66
2023-06-27T04:53:38.048Z,16.69
2023-06-27T04:54:38.069Z,16.71
2023-06-27T04:55:38.249Z,16.69
2023-06-27T04:56:38.019Z,16.66
2023-06-27T04:57:37.990Z,16.68
2023-06-27T04:58:37.980Z,16.76
2023-06-27T04:59:38.003Z,16.72
2023-06-27T05:00:38.007Z,16.76
2023-06-27T05:01:37.960Z,16.74
2023-06-27T05:02:48.840Z,16.81
2023-06-27T05:03:39.592Z,16.81
2023-06-27T05:04:37.944Z,16.83
2023-06-27T05:05:38.019Z,16.86
2023-06-27T05:06:37.929Z,16.87
2023-06-27T05:07:37.879Z,16.87
2023-06-27T05:08:37.882Z,16.89
2023-06-27T05:09:37.863Z,16.99
2023-06-27T05:10:37.865Z,16.84
2023-06-27T05:11:37.861Z,16.93
2023-06-27T05:12:37.825Z,16.97
2023-06-27T05:13:37.821Z,17.01
2023-06-27T05:14:37.799Z,16.96
2023-06-27T05:15:37.829Z,17.01
2023-06-27T05:16:37.785Z,16.99
2023-06-27T05:17:37.814Z,16.97
2023-06-27T05:18:37.754Z,16.93
2023-06-27T05:19:37.738Z,16.91
2023-06-27T05:20:37.800Z,17.02
2023-06-27T05:21:37.728Z,17.05
2023-06-27T05:22:37.710Z,17.08
2023-06-27T05:23:37.701Z,17.04
2023-06-27T05:24:37.686Z,17.04
2023-06-27T05:25:37.851Z,17.20
2023-06-27T05:26:37.679Z,17.29
2023-06-27T05:27:37.674Z,17.19
2023-06-27T05:28:37.641Z,17.22
2023-06-27T05:29:37.644Z,17.52
2023-06-27T05:30:37.787Z,17.67
2023-06-27T05:31:37.609Z,17.80
2023-06-27T05:32:37.689Z,17.97
2023-06-27T05:33:37.638Z,18.05
2023-06-27T05:34:37.591Z,18.26
2023-06-27T05:35:37.719Z,18.31
2023-06-27T05:36:37.556Z,18.31
2023-06-27T05:37:37.550Z,18.15
2023-06-27T05:38:37.553Z,17.94
2023-06-27T05:39:37.529Z,17.97
2023-06-27T05:40:37.525Z,18.10
2023-06-27T05:41:37.518Z,18.22
2023-06-27T05:42:37.526Z,18.50
2023-06-27T05:43:37.514Z,18.68
2023-06-27T05:44:37.481Z,18.96
2023-06-27T05:45:37.621Z,19.16
2023-06-27T05:46:37.444Z,19.33
2023-06-27T05:47:37.508Z,19.59
2023-06-27T05:48:37.458Z,19.74
2023-06-27T05:49:37.451Z,19.85
2023-06-27T05:50:37.426Z,19.71
2023-06-27T05:51:37.423Z,19.64
2023-06-27T05:52:37.381Z,19.66
2023-06-27T05:53:37.369Z,19.84
2023-06-27T05:54:37.374Z,19.63
2023-06-27T05:55:37.383Z,19.58
2023-06-27T05:56:37.338Z,19.45
2023-06-27T05:57:37.313Z,19.51
2023-06-27T05:58:37.326Z,19.34
2023-06-27T05:59:37.305Z,19.30
2023-06-27T06:00:37.311Z,19.37
2023-06-27T06:01:37.327Z,19.24
2023-06-27T06:02:40.159Z,19.07
2023-06-27T06:03:37.329Z,18.88
2023-06-27T06:04:37.263Z,18.92
2023-06-27T06:05:37.255Z,18.78
2023-06-27T06:06:37.245Z,18.59
2023-06-27T06:07:37.210Z,18.70
2023-06-27T06:08:37.226Z,18.98
2023-06-27T06:09:37.197Z,19.24
2023-06-27T06:10:37.188Z,19.44
2023-06-27T06:11:37.189Z,19.81
2023-06-27T06:12:37.202Z,19.81
2023-06-27T06:13:37.149Z,20.03
2023-06-27T06:14:37.133Z,20.06
2023-06-27T06:15:37.143Z,20.31
2023-06-27T06:16:37.119Z,20.63
2023-06-27T06:17:37.177Z,20.80
2023-06-27T06:18:37.088Z,20.95
2023-06-27T06:19:37.087Z,20.95
2023-06-27T06:20:37.068Z,21.05
2023-06-27T06:21:37.078Z,21.18
2023-06-27T06:22:37.055Z,21.14
2023-06-27T06:23:37.070Z,21.14
2023-06-27T06:24:37.037Z,21.15
2023-06-27T06:25:37.077Z,21.03
2023-06-27T06:26:37.004Z,20.95
2023-06-27T06:27:37.003Z,20.97
2023-06-27T06:28:36.986Z,20.88
2023-06-27T06:29:36.980Z,21.00
2023-06-27T06:30:36.970Z,20.99
2023-06-27T06:31:36.953Z,20.96
2023-06-27T06:32:36.972Z,20.84
2023-06-27T06:33:36.942Z,20.90
2023-06-27T06:34:36.936Z,20.85
2023-06-27T06:35:36.914Z,20.97
2023-06-27T06:36:36.920Z,21.17
2023-06-27T06:37:37.001Z,21.32
2023-06-27T06:38:36.870Z,21.45
2023-06-27T06:39:36.862Z,21.62
2023-06-27T06:40:36.846Z,21.67
2023-06-27T06:41:36.847Z,21.70
2023-06-27T06:42:36.824Z,21.77
2023-06-27T06:43:36.832Z,21.77
2023-06-27T06:44:36.818Z,21.69
2023-06-27T06:45:36.789Z,21.54
2023-06-27T06:46:36.880Z,21.54
2023-06-27T06:47:36.895Z,21.70
2023-06-27T06:48:36.761Z,21.52
2023-06-27T06:49:36.760Z,21.42
2023-06-27T06:50:36.759Z,21.24
2023-06-27T06:51:36.720Z,21.22
2023-06-27T06:52:36.757Z,21.46
2023-06-27T06:53:36.718Z,21.52
2023-06-27T06:54:36.690Z,21.64
2023-06-27T06:55:36.690Z,21.67
2023-06-27T06:56:36.670Z,21.72
2023-06-27T06:57:36.666Z,21.95
2023-06-27T06:58:36.675Z,22.20
2023-06-27T06:59:36.634Z,22.30
2023-06-27T07:00:36.682Z,22.48
2023-06-27T07:01:36.706Z,22.57
2023-06-27T07:02:36.648Z,22.38
2023-06-27T07:03:36.639Z,22.29
2023-06-27T07:04:36.642Z,22.25
2023-06-27T07:05:36.608Z,22.13
2023-06-27T07:06:36.562Z,22.04
2023-06-27T07:07:36.572Z,21.93
2023-06-27T07:08:36.534Z,21.89
2023-06-27T07:09:36.708Z,21.93
2023-06-27T07:10:36.526Z,21.89
2023-06-27T07:11:36.500Z,21.75
2023-06-27T07:12:36.500Z,21.70
2023-06-27T07:13:36.477Z,21.77
2023-06-27T07:14:36.506Z,21.67
2023-06-27T07:15:36.636Z,21.60
2023-06-27T07:16:36.462Z,21.46
2023-06-27T07:17:36.490Z,21.45
2023-06-27T07:18:36.427Z,21.42
2023-06-27T07:19:36.414Z,21.33
2023-06-27T07:20:36.430Z,21.39
2023-06-27T07:21:36.461Z,21.36
2023-06-27T07:22:36.430Z,21.30
2023-06-27T07:23:36.376Z,21.18
2023-06-27T07:24:36.356Z,20.88
2023-06-27T07:25:36.617Z,20.90
2023-06-27T07:26:36.338Z,20.92
2023-06-27T07:27:36.335Z,20.93
2023-06-27T07:28:36.323Z,20.99
2023-06-27T07:29:36.332Z,21.05
2023-06-27T07:30:36.322Z,20.99
2023-06-27T07:31:36.370Z,21.12
2023-06-27T07:32:36.336Z,21.17
2023-06-27T07:33:36.281Z,21.11
2023-06-27T07:34:36.250Z,21.07
2023-06-27T07:35:36.238Z,21.09
2023-06-27T07:36:36.257Z,21.07
2023-06-27T07:37:36.220Z,21.25
2023-06-27T07:38:36.214Z,21.18
2023-06-27T07:39:36.197Z,21.18
2023-06-27T07:40:36.197Z,21.12
2023-06-27T07:41:36.193Z,21.20
2023-06-27T07:42:36.290Z,21.05
2023-06-27T07:43:36.169Z,20.96
2023-06-27T07:44:36.136Z,20.97
2023-06-27T07:45:36.181Z,21.11
2023-06-27T07:46:36.122Z,21.09
2023-06-27T07:47:36.131Z,21.24
2023-06-27T07:48:36.122Z,21.18
2023-06-27T07:49:36.104Z,21.29
2023-06-27T07:50:36.075Z,21.33
2023-06-27T07:51:36.057Z,21.24
2023-06-27T07:52:36.227Z,21.22
2023-06-27T07:53:36.064Z,21.30
2023-06-27T07:54:36.023Z,21.27
2023-06-27T07:55:36.012Z,21.33
2023-06-27T07:56:36.002Z,21.42
2023-06-27T07:57:36.080Z,21.45
2023-06-27T07:58:35.980Z,21.32
2023-06-27T07:59:35.988Z,21.21
2023-06-27T08:00:36.001Z,21.22
2023-06-27T08:01:36.028Z,21.12
2023-06-27T08:02:36.021Z,21.11
2023-06-27T08:03:35.986Z,21.11
2023-06-27T08:04:35.912Z,21.15
2023-06-27T08:05:35.943Z,21.27
2023-06-27T08:06:35.895Z,21.20
2023-06-27T08:07:35.995Z,21.17
2023-06-27T08:08:35.888Z,21.21
2023-06-27T08:09:35.876Z,21.29
2023-06-27T08:10:35.844Z,21.30
2023-06-27T08:11:35.842Z,21.33
2023-06-27T08:12:35.838Z,21.42
2023-06-27T08:13:35.912Z,21.45
2023-06-27T08:14:35.835Z,21.66
2023-06-27T08:15:35.797Z,21.69
2023-06-27T08:16:35.805Z,21.77
2023-06-27T08:17:35.802Z,21.98
2023-06-27T08:18:35.771Z,22.10
2023-06-27T08:19:35.823Z,22.10
2023-06-27T08:20:35.746Z,22.23
2023-06-27T08:21:35.738Z,22.29
2023-06-27T08:22:35.732Z,22.25
2023-06-27T08:23:35.708Z,22.30
2023-06-27T08:24:35.690Z,22.36
2023-06-27T08:25:35.690Z,22.36
2023-06-27T08:26:35.668Z,22.33
2023-06-27T08:27:35.662Z,22.36
2023-06-27T08:28:35.655Z,22.43
2023-06-27T08:29:35.754Z,22.55
2023-06-27T08:30:35.644Z,22.59
2023-06-27T08:31:35.848Z,22.55
2023-06-27T08:32:35.685Z,22.54
2023-06-27T08:33:35.601Z,22.55
2023-06-27T08:34:35.580Z,22.51
2023-06-27T08:35:35.634Z,22.63
2023-06-27T08:36:35.553Z,22.57
2023-06-27T08:37:35.577Z,22.69
2023-06-27T08:38:35.543Z,22.78
2023-06-27T08:39:35.560Z,22.68
2023-06-27T08:40:35.516Z,22.73
2023-06-27T08:41:35.533Z,22.78
2023-06-27T08:42:35.521Z,22.87
2023-06-27T08:43:35.485Z,22.84
2023-06-27T08:44:35.486Z,23.02
2023-06-27T08:45:35.531Z,23.09
2023-06-27T08:46:35.480Z,22.93
2023-06-27T08:47:35.511Z,22.83
2023-06-27T08:48:35.436Z,22.66
2023-06-27T08:49:35.415Z,22.55
2023-06-27T08:50:35.407Z,22.48
2023-06-27T08:51:38.793Z,22.51
2023-06-27T08:52:35.398Z,22.50
2023-06-27T08:53:35.382Z,22.47
2023-06-27T08:54:35.370Z,22.59
2023-06-27T08:55:35.362Z,22.55
2023-06-27T08:56:35.344Z,22.57
2023-06-27T08:57:35.341Z,22.68
2023-06-27T08:58:35.324Z,22.69
2023-06-27T08:59:35.318Z,22.69
2023-06-27T09:00:35.299Z,22.85
2023-06-27T09:01:35.524Z,22.91
2023-06-27T09:02:35.421Z,22.90
2023-06-27T09:03:35.372Z,22.96
2023-06-27T09:04:35.282Z,23.10
2023-06-27T09:05:35.271Z,23.17
2023-06-27T09:06:35.237Z,22.99
2023-06-27T09:07:35.319Z,23.09
2023-06-27T09:08:35.232Z,23.08
2023-06-27T09:09:35.208Z,23.15
2023-06-27T09:10:35.208Z,23.21
2023-06-27T09:11:35.180Z,23.13
2023-06-27T09:12:35.162Z,23.13
2023-06-27T09:13:35.211Z,23.06
2023-06-27T09:14:35.147Z,22.98
2023-06-27T09:15:35.138Z,23.00
2023-06-27T09:16:35.172Z,23.05
2023-06-27T09:17:35.154Z,23.13
2023-06-27T09:18:35.126Z,23.12
2023-06-27T09:19:35.106Z,22.85
2023-06-27T09:20:35.108Z,22.81
2023-06-27T09:21:35.077Z,22.73
2023-06-27T09:22:35.076Z,22.75
2023-06-27T09:23:35.049Z,22.75
2023-06-27T09:24:35.049Z,22.70
2023-06-27T09:25:35.036Z,22.70
2023-06-27T09:26:35.028Z,22.84
2023-06-27T09:27:35.039Z,22.87
2023-06-27T09:28:35.025Z,22.81
2023-06-27T09:29:34.981Z,22.80
2023-06-27T09:30:35.014Z,22.68
2023-06-27T09:31:35.117Z,22.70
2023-06-27T09:32:34.998Z,22.75
2023-06-27T09:33:34.991Z,22.70
2023-06-27T09:34:34.933Z,22.80
2023-06-27T09:35:59.483Z,22.70
2023-06-27T09:39:34.878Z,22.72
2023-06-27T09:40:34.871Z,22.93
2023-06-27T09:41:34.900Z,22.87
2023-06-27T09:42:34.835Z,22.87
2023-06-27T09:43:34.830Z,22.65
2023-06-27T09:44:34.835Z,22.69
2023-06-27T09:45:34.807Z,22.70
2023-06-27T09:46:34.816Z,22.66
2023-06-27T09:47:34.811Z,22.70
2023-06-27T09:48:34.769Z,22.78
2023-06-27T09:49:34.784Z,22.81
2023-06-27T09:50:34.756Z,22.73
2023-06-27T09:51:34.761Z,22.78
2023-06-27T09:52:34.754Z,22.88
2023-06-27T09:53:34.724Z,22.96
2023-06-27T09:54:34.704Z,22.90
2023-06-27T09:55:34.697Z,22.84
2023-06-27T09:56:34.681Z,22.68
2023-06-27T09:57:34.690Z,22.63
2023-06-27T09:58:34.670Z,22.62
2023-06-27T09:59:35.808Z,22.59
2023-06-27T10:00:34.655Z,22.66
2023-06-27T10:01:34.627Z,22.76
2023-06-27T10:02:34.710Z,22.76
2023-06-27T10:03:34.710Z,22.96
2023-06-27T10:04:40.158Z,22.96
2023-06-27T10:05:38.591Z,22.81
2023-06-27T10:06:35.590Z,22.83
2023-06-27T10:07:34.713Z,22.88
2023-06-27T10:08:34.559Z,22.99
2023-06-27T10:09:34.548Z,23.00
2023-06-27T10:10:34.533Z,22.72
2023-06-27T10:11:34.519Z,22.68
2023-06-27T10:12:34.522Z,22.70
2023-06-27T10:13:34.489Z,22.62
2023-06-27T10:14:34.514Z,22.66
2023-06-27T10:15:34.470Z,22.68
2023-06-27T10:16:34.457Z,22.53
2023-06-27T10:17:34.467Z,22.59
2023-06-27T10:18:34.452Z,22.68
2023-06-27T10:19:34.441Z,22.80
2023-06-27T10:20:34.420Z,22.99
2023-06-27T10:21:34.426Z,23.06
2023-06-27T10:22:34.390Z,23.06
2023-06-27T10:23:34.394Z,23.15
2023-06-27T10:24:34.402Z,23.32
2023-06-27T10:25:34.362Z,23.41
2023-06-27T10:26:34.395Z,23.40
2023-06-27T10:27:34.334Z,23.43
2023-06-27T10:28:34.318Z,23.54
2023-06-27T10:29:34.328Z,23.62
2023-06-27T10:30:37.006Z,23.83
2023-06-27T10:31:34.307Z,23.81
2023-06-27T10:32:34.329Z,23.91
2023-06-27T10:33:34.276Z,23.88
2023-06-27T10:34:34.272Z,23.78
2023-06-27T10:35:34.265Z,23.51
2023-06-27T10:36:34.228Z,23.25
2023-06-27T10:37:34.243Z,23.06
2023-06-27T10:38:34.219Z,22.81
2023-06-27T10:39:34.221Z,22.81
2023-06-27T10:40:34.185Z,22.76
2023-06-27T10:41:34.185Z,22.65
2023-06-27T10:42:34.173Z,22.75
2023-06-27T10:43:34.157Z,22.62
2023-06-27T10:44:34.155Z,22.38
2023-06-27T10:45:34.136Z,22.26
2023-06-27T10:46:34.126Z,22.22
2023-06-27T10:47:34.171Z,22.18
2023-06-27T10:48:34.114Z,22.17
2023-06-27T10:49:34.107Z,22.18
2023-06-27T10:50:34.092Z,22.02
2023-06-27T10:51:34.066Z,22.15
2023-06-27T10:52:34.056Z,22.25
2023-06-27T10:53:34.204Z,22.25
2023-06-27T10:54:34.065Z,22.30
2023-06-27T10:55:34.043Z,22.36
2023-06-27T10:56:34.008Z,22.39
2023-06-27T10:57:34.016Z,22.47
2023-06-27T10:58:34.006Z,22.51
2023-06-27T10:59:34.020Z,22.81
2023-06-27T11:00:34.027Z,22.96
2023-06-27T11:01:33.996Z,23.37
2023-06-27T11:02:34.211Z,23.58
2023-06-27T11:03:34.235Z,23.68
2023-06-27T11:04:34.037Z,23.88
2023-06-27T11:05:34.027Z,23.84
2023-06-27T11:06:33.985Z,23.86
2023-06-27T11:07:33.936Z,23.83
2023-06-27T11:08:33.881Z,23.62
2023-06-27T11:09:33.948Z,23.36
2023-06-27T11:10:33.873Z,23.18
2023-06-27T11:11:33.866Z,23.13
2023-06-27T11:12:33.835Z,23.17
2023-06-27T11:13:33.847Z,23.02
2023-06-27T11:14:33.819Z,23.03
2023-06-27T11:15:33.821Z,23.05
2023-06-27T11:16:33.858Z,22.98
2023-06-27T11:17:33.832Z,22.98
2023-06-27T11:18:33.780Z,22.94
2023-06-27T11:19:33.775Z,22.94
2023-06-27T11:20:33.754Z,22.99
2023-06-27T11:21:33.770Z,22.94
2023-06-27T11:22:33.764Z,22.96
2023-06-27T11:23:33.732Z,22.98
2023-06-27T11:24:33.717Z,22.90
2023-06-27T11:25:33.796Z,22.87
2023-06-27T11:26:35.709Z,22.85
2023-06-27T11:27:33.746Z,22.90
2023-06-27T11:28:33.672Z,22.94
2023-06-27T11:29:33.656Z,23.03
2023-06-27T11:30:33.643Z,23.06
2023-06-27T11:31:33.649Z,23.32
2023-06-27T11:32:34.170Z,23.37
2023-06-27T11:33:33.664Z,23.51
2023-06-27T11:34:33.593Z,23.62
2023-06-27T11:35:33.587Z,23.76
2023-06-27T11:36:33.570Z,23.71
2023-06-27T11:37:33.579Z,23.78
2023-06-27T11:38:33.593Z,23.76
2023-06-27T11:39:33.566Z,23.88
2023-06-27T11:40:33.530Z,24.02
2023-06-27T11:41:33.569Z,24.14
2023-06-27T11:42:33.509Z,23.99
2023-06-27T11:43:33.537Z,23.86
2023-06-27T11:44:33.517Z,23.56
2023-06-27T11:45:33.472Z,23.46
2023-06-27T11:46:33.486Z,23.31
2023-06-27T11:47:33.478Z,23.21
2023-06-27T11:48:33.498Z,23.21
2023-06-27T11:49:34.354Z,23.32
2023-06-27T11:50:33.420Z,23.27
2023-06-27T11:51:33.401Z,23.34
2023-06-27T11:52:33.402Z,23.20
2023-06-27T11:53:33.420Z,23.47
2023-06-27T11:54:33.386Z,23.48
2023-06-27T11:55:33.372Z,23.61
2023-06-27T11:56:33.351Z,23.77
2023-06-27T11:57:33.357Z,23.86
2023-06-27T11:58:33.348Z,23.98
2023-06-27T11:59:33.399Z,24.03
2023-06-27T12:00:33.306Z,24.05
2023-06-27T12:01:33.388Z,24.01
2023-06-27T12:02:33.323Z,23.92
2023-06-27T12:03:33.335Z,23.87
2023-06-27T12:04:33.294Z,23.87
2023-06-27T12:05:33.258Z,23.84
2023-06-27T12:06:33.331Z,23.86
2023-06-27T12:07:33.342Z,23.88
2023-06-27T12:08:33.230Z,23.87
2023-06-27T12:09:33.204Z,23.84
2023-06-27T12:10:33.200Z,23.86
2023-06-27T12:11:33.233Z,24.02
2023-06-27T12:12:33.189Z,23.99
2023-06-27T12:13:33.196Z,24.16
2023-06-27T12:14:33.174Z,24.20
2023-06-27T12:15:33.142Z,24.17
2023-06-27T12:16:33.126Z,24.11
2023-06-27T12:17:33.175Z,23.95
2023-06-27T12:18:33.104Z,23.87
2023-06-27T12:19:33.105Z,23.93
2023-06-27T12:20:33.088Z,23.93
2023-06-27T12:21:33.137Z,23.86
2023-06-27T12:22:33.082Z,23.91
2023-06-27T12:23:33.113Z,24.02
2023-06-27T12:24:33.044Z,24.02
2023-06-27T12:25:33.042Z,23.91
2023-06-27T12:26:33.060Z,23.88
2023-06-27T12:27:33.030Z,23.92
2023-06-27T12:28:32.999Z,23.83
2023-06-27T12:29:33.100Z,23.76
2023-06-27T12:30:32.983Z,23.68
2023-06-27T12:31:33.051Z,23.68
2023-06-27T12:32:33.025Z,23.69
2023-06-27T12:33:32.980Z,23.78
2023-06-27T12:34:34.017Z,24.01
2023-06-27T12:35:32.929Z,24.21
2023-06-27T12:36:32.925Z,24.30
2023-06-27T12:37:32.904Z,24.39
2023-06-27T12:38:32.899Z,24.54
2023-06-27T12:39:32.909Z,24.70
2023-06-27T12:40:32.861Z,24.76
2023-06-27T12:41:32.896Z,24.70
2023-06-27T12:42:32.844Z,24.63
2023-06-27T12:43:32.891Z,24.61
2023-06-27T12:44:32.825Z,24.63
2023-06-27T12:45:35.675Z,24.74
2023-06-27T12:46:32.821Z,24.85
2023-06-27T12:47:32.823Z,25.01
2023-06-27T12:48:32.782Z,25.21
2023-06-27T12:49:32.808Z,25.17
2023-06-27T12:50:32.763Z,25.25
2023-06-27T12:51:32.744Z,25.26
2023-06-27T12:52:32.756Z,25.35
2023-06-27T12:53:32.751Z,25.36
2023-06-27T12:54:32.735Z,25.22
2023-06-27T12:55:32.713Z,25.23